Gary City, Texas
Current Conditions -  °F | °C
As of 8:55 PM on Friday 21 Nov 2014 (Local Time) from KASL Reporting Station
Overcast Overcast  
Wind Chill: 52°   Ceiling: 4300
Heat Index: 52°   Visibility: 10mi
Dew Point: 47°   Wind: 3mph
Humidity: 84%   Direction: 130°SE
Pressure: 30.21"   Gusts: NA
Location:  32.0166°N, 94.2581°W
Report Text: KASL 220255Z AUTO 13003KT 10SM BKN043 OVC050 11/09 A3021 RMK AO1 T01130086
Loading
Personal Weather Stations






























Interactive Weather Map New forecast layout! Learn more

10-Day Weather Forecast

Advertisements
Track Severe Weather on mobile